sensor_id;sensor_type;location;lat;lon;timestamp;pressure;altitude;pressure_sealevel;temperature;humidity
62976;BME280;49071;0.000;0.000;2023-04-19T05:19:18;101754.56;;;17.12;44.52
62976;BME280;49071;0.000;0.000;2023-04-19T05:22:19;101742.19;;;17.17;44.36
62976;BME280;49071;0.000;0.000;2023-04-19T05:25:19;101735.94;;;17.21;44.48
62976;BME280;49071;0.000;0.000;2023-04-19T05:28:19;101734.66;;;17.68;43.29
62976;BME280;49071;0.000;0.000;2023-04-19T05:31:19;101741.34;;;19.90;38.13
62976;BME280;49071;0.000;0.000;2023-04-19T05:34:19;101730.00;;;20.77;36.09
62976;BME280;49071;0.000;0.000;2023-04-19T05:37:20;101724.00;;;21.14;35.30
62976;BME280;49071;0.000;0.000;2023-04-19T05:40:20;101727.41;;;21.57;34.14
62976;BME280;49071;0.000;0.000;2023-04-19T05:43:22;101724.22;;;18.79;39.68
62976;BME280;49071;0.000;0.000;2023-04-19T05:46:22;101711.25;;;18.20;41.49
62976;BME280;49071;0.000;0.000;2023-04-19T05:49:22;101716.69;;;18.14;42.30
62976;BME280;49071;0.000;0.000;2023-04-19T05:52:23;101712.34;;;18.13;42.52
62976;BME280;49071;0.000;0.000;2023-04-19T05:55:23;101712.09;;;18.21;42.38
62976;BME280;49071;0.000;0.000;2023-04-19T05:58:23;101716.06;;;18.34;42.76
62976;BME280;49071;0.000;0.000;2023-04-19T06:01:23;101708.69;;;18.45;42.61
62976;BME280;49071;0.000;0.000;2023-04-19T06:04:24;101707.63;;;18.51;42.45
62976;BME280;49071;0.000;0.000;2023-04-19T06:07:24;101708.00;;;18.67;42.62
62976;BME280;49071;0.000;0.000;2023-04-19T06:10:24;101697.09;;;18.79;42.09
62976;BME280;49071;0.000;0.000;2023-04-19T06:13:24;101702.13;;;18.85;42.00
62976;BME280;49071;0.000;0.000;2023-04-19T06:16:25;101697.59;;;18.90;42.20
62976;BME280;49071;0.000;0.000;2023-04-19T06:19:25;101691.31;;;18.94;42.17
62976;BME280;49071;0.000;0.000;2023-04-19T06:22:26;101699.84;;;19.01;42.14
62976;BME280;49071;0.000;0.000;2023-04-19T06:25:26;101699.63;;;19.07;41.84
62976;BME280;49071;0.000;0.000;2023-04-19T06:28:26;101699.56;;;19.08;42.14
62976;BME280;49071;0.000;0.000;2023-04-19T06:31:26;101694.13;;;19.13;41.93
62976;BME280;49071;0.000;0.000;2023-04-19T06:34:26;101691.25;;;19.21;42.15
62976;BME280;49071;0.000;0.000;2023-04-19T06:37:27;101690.75;;;19.34;41.78
62976;BME280;49071;0.000;0.000;2023-04-19T06:40:27;101690.13;;;19.51;41.59
62976;BME280;49071;0.000;0.000;2023-04-19T06:43:28;101700.09;;;19.67;41.44
62976;BME280;49071;0.000;0.000;2023-04-19T06:46:28;101691.97;;;19.73;41.20
62976;BME280;49071;0.000;0.000;2023-04-19T06:49:28;101685.53;;;19.81;40.96
62976;BME280;49071;0.000;0.000;2023-04-19T06:52:28;101674.13;;;19.81;40.96
62976;BME280;49071;0.000;0.000;2023-04-19T06:55:29;101666.91;;;19.86;40.84
62976;BME280;49071;0.000;0.000;2023-04-19T06:58:29;101668.72;;;19.84;40.87
62976;BME280;49071;0.000;0.000;2023-04-19T07:01:30;101664.63;;;19.77;40.83
62976;BME280;49071;0.000;0.000;2023-04-19T07:04:31;101665.84;;;19.68;40.96
62976;BME280;49071;0.000;0.000;2023-04-19T07:07:31;101662.22;;;19.71;40.98
62976;BME280;49071;0.000;0.000;2023-04-19T07:10:32;101663.88;;;19.73;41.05
62976;BME280;49071;0.000;0.000;2023-04-19T07:13:32;101660.38;;;19.73;40.96
62976;BME280;49071;0.000;0.000;2023-04-19T07:16:32;101658.00;;;19.67;41.18
62976;BME280;49071;0.000;0.000;2023-04-19T07:19:32;101659.06;;;19.61;41.34
62976;BME280;49071;0.000;0.000;2023-04-19T07:22:34;101663.63;;;19.56;41.14
62976;BME280;49071;0.000;0.000;2023-04-19T07:25:34;101663.63;;;19.56;41.12
62976;BME280;49071;0.000;0.000;2023-04-19T07:28:34;101670.72;;;19.54;41.49
62976;BME280;49071;0.000;0.000;2023-04-19T07:31:35;101661.97;;;19.53;41.26
62976;BME280;49071;0.000;0.000;2023-04-19T07:34:36;101663.97;;;19.47;41.36
62976;BME280;49071;0.000;0.000;2023-04-19T07:37:36;101656.16;;;19.45;41.31
62976;BME280;49071;0.000;0.000;2023-04-19T07:40:36;101653.19;;;19.31;41.82
62976;BME280;49071;0.000;0.000;2023-04-19T07:43:37;101644.88;;;19.18;42.21
62976;BME280;49071;0.000;0.000;2023-04-19T07:46:37;101650.06;;;19.20;42.21
62976;BME280;49071;0.000;0.000;2023-04-19T07:49:37;101649.22;;;19.19;42.24
62976;BME280;49071;0.000;0.000;2023-04-19T07:52:37;101649.31;;;19.16;42.24
62976;BME280;49071;0.000;0.000;2023-04-19T07:55:38;101650.19;;;19.17;42.19
62976;BME280;49071;0.000;0.000;2023-04-19T07:58:38;101649.44;;;19.13;42.14
62976;BME280;49071;0.000;0.000;2023-04-19T08:01:38;101642.66;;;19.07;42.32
62976;BME280;49071;0.000;0.000;2023-04-19T08:04:38;101646.22;;;19.05;42.01
62976;BME280;49071;0.000;0.000;2023-04-19T08:07:39;101649.72;;;19.05;42.14
62976;BME280;49071;0.000;0.000;2023-04-19T08:10:39;101638.34;;;19.05;42.13
62976;BME280;49071;0.000;0.000;2023-04-19T08:13:39;101643.72;;;19.02;42.19
62976;BME280;49071;0.000;0.000;2023-04-19T08:16:39;101641.25;;;18.97;42.18
62976;BME280;49071;0.000;0.000;2023-04-19T08:19:40;101629.13;;;18.93;42.33
62976;BME280;49071;0.000;0.000;2023-04-19T08:22:40;101630.25;;;18.86;42.00
62976;BME280;49071;0.000;0.000;2023-04-19T08:25:40;101627.91;;;18.78;42.33
62976;BME280;49071;0.000;0.000;2023-04-19T08:28:40;101624.59;;;18.73;42.51
62976;BME280;49071;0.000;0.000;2023-04-19T08:31:42;101618.59;;;18.68;42.64
62976;BME280;49071;0.000;0.000;2023-04-19T08:34:42;101627.28;;;18.70;42.84
62976;BME280;49071;0.000;0.000;2023-04-19T08:37:42;101624.66;;;18.70;42.61
62976;BME280;49071;0.000;0.000;2023-04-19T08:40:46;101629.66;;;18.78;42.51
62976;BME280;49071;0.000;0.000;2023-04-19T08:43:50;101625.75;;;18.90;42.57
62976;BME280;49071;0.000;0.000;2023-04-19T08:46:50;101614.84;;;19.00;42.05
62976;BME280;49071;0.000;0.000;2023-04-19T08:49:51;101618.22;;;19.04;42.16
62976;BME280;49071;0.000;0.000;2023-04-19T08:52:53;101622.91;;;19.19;42.39
62976;BME280;49071;0.000;0.000;2023-04-19T08:55:53;101614.69;;;19.28;42.03
62976;BME280;49071;0.000;0.000;2023-04-19T08:58:57;101609.25;;;19.33;41.98
62976;BME280;49071;0.000;0.000;2023-04-19T09:02:00;101597.88;;;19.32;42.07
62976;BME280;49071;0.000;0.000;2023-04-19T09:05:00;101601.94;;;19.41;41.66
62976;BME280;49071;0.000;0.000;2023-04-19T09:08:20;101594.94;;;19.40;41.81
62976;BME280;49071;0.000;0.000;2023-04-19T09:11:20;101597.66;;;19.39;41.77
62976;BME280;49071;0.000;0.000;2023-04-19T09:14:22;101598.47;;;19.41;41.79
62976;BME280;49071;0.000;0.000;2023-04-19T09:17:22;101601.19;;;19.38;41.66
62976;BME280;49071;0.000;0.000;2023-04-19T09:20:25;101601.25;;;19.36;41.87
62976;BME280;49071;0.000;0.000;2023-04-19T09:23:34;101590.72;;;19.36;41.72
62976;BME280;49071;0.000;0.000;2023-04-19T09:26:54;101573.34;;;19.32;41.62
62976;BME280;49071;0.000;0.000;2023-04-19T09:29:55;101579.53;;;19.31;41.69
62976;BME280;49071;0.000;0.000;2023-04-19T09:32:56;101580.72;;;19.22;41.92
62976;BME280;49071;0.000;0.000;2023-04-19T09:35:57;101585.44;;;19.14;42.11
62976;BME280;49071;0.000;0.000;2023-04-19T09:38:57;101576.91;;;19.07;41.83
62976;BME280;49071;0.000;0.000;2023-04-19T09:41:58;101568.19;;;19.05;42.02
62976;BME280;49071;0.000;0.000;2023-04-19T09:44:58;101566.50;;;19.04;42.07
62976;BME280;49071;0.000;0.000;2023-04-19T09:48:02;101560.31;;;19.05;41.85
62976;BME280;49071;0.000;0.000;2023-04-19T09:51:03;101565.53;;;19.07;41.92
62976;BME280;49071;0.000;0.000;2023-04-19T09:54:03;101562.09;;;19.05;41.96
62976;BME280;49071;0.000;0.000;2023-04-19T09:57:03;101564.03;;;19.00;42.04
62976;BME280;49071;0.000;0.000;2023-04-19T10:00:04;101563.38;;;18.93;42.49
62976;BME280;49071;0.000;0.000;2023-04-19T10:03:08;101565.34;;;18.88;42.34
62976;BME280;49071;0.000;0.000;2023-04-19T10:06:08;101571.66;;;18.82;42.49
62976;BME280;49071;0.000;0.000;2023-04-19T10:09:08;101559.44;;;18.81;42.52
62976;BME280;49071;0.000;0.000;2023-04-19T10:12:09;101553.38;;;18.79;42.51
62976;BME280;49071;0.000;0.000;2023-04-19T10:15:10;101552.53;;;18.79;42.58
62976;BME280;49071;0.000;0.000;2023-04-19T10:18:10;101554.19;;;18.81;42.60
62976;BME280;49071;0.000;0.000;2023-04-19T10:21:11;101563.69;;;18.85;42.85
62976;BME280;49071;0.000;0.000;2023-04-19T10:24:12;101551.28;;;18.89;42.60
62976;BME280;49071;0.000;0.000;2023-04-19T10:27:13;101558.91;;;18.97;42.63
62976;BME280;49071;0.000;0.000;2023-04-19T10:30:23;101558.53;;;19.06;42.39
62976;BME280;49071;0.000;0.000;2023-04-19T10:33:26;101554.59;;;19.18;42.52
62976;BME280;49071;0.000;0.000;2023-04-19T10:36:27;101556.75;;;19.30;42.56
62976;BME280;49071;0.000;0.000;2023-04-19T10:39:41;101545.16;;;19.35;42.41
62976;BME280;49071;0.000;0.000;2023-04-19T10:46:13;101547.81;;;19.57;41.79
62976;BME280;49071;0.000;0.000;2023-04-19T10:49:14;101545.91;;;19.61;41.99
62976;BME280;49071;0.000;0.000;2023-04-19T10:52:26;101538.81;;;19.63;41.96
62976;BME280;49071;0.000;0.000;2023-04-19T10:55:28;101534.44;;;19.62;41.85
62976;BME280;49071;0.000;0.000;2023-04-19T10:58:32;101536.22;;;19.62;41.68
62976;BME280;49071;0.000;0.000;2023-04-19T11:01:53;101526.69;;;19.59;41.73
62976;BME280;49071;0.000;0.000;2023-04-19T11:07:53;101516.38;;;19.53;41.99
62976;BME280;49071;0.000;0.000;2023-04-19T11:10:55;101511.19;;;19.51;42.13
62976;BME280;49071;0.000;0.000;2023-04-19T11:13:55;101509.66;;;19.46;41.94
62976;BME280;49071;0.000;0.000;2023-04-19T11:16:56;101523.00;;;19.41;42.23
62976;BME280;49071;0.000;0.000;2023-04-19T11:20:04;101514.28;;;19.41;42.03
62976;BME280;49071;0.000;0.000;2023-04-19T11:23:14;101523.97;;;19.39;42.09
62976;BME280;49071;0.000;0.000;2023-04-19T11:26:15;101514.53;;;19.33;42.25
62976;BME280;49071;0.000;0.000;2023-04-19T11:29:15;101524.34;;;19.29;42.18
62976;BME280;49071;0.000;0.000;2023-04-19T11:32:19;101521.94;;;19.23;42.48
62976;BME280;49071;0.000;0.000;2023-04-19T11:35:20;101522.19;;;19.17;42.35
62976;BME280;49071;0.000;0.000;2023-04-19T11:38:21;101520.66;;;19.11;42.42
62976;BME280;49071;0.000;0.000;2023-04-19T11:41:21;101519.94;;;19.06;42.64
62976;BME280;49071;0.000;0.000;2023-04-19T11:44:22;101517.56;;;19.00;42.66
62976;BME280;49071;0.000;0.000;2023-04-19T11:47:22;101524.78;;;18.95;42.83
62976;BME280;49071;0.000;0.000;2023-04-19T11:50:38;101534.63;;;18.90;42.71
62976;BME280;49071;0.000;0.000;2023-04-19T11:53:39;101543.56;;;18.84;42.99
62976;BME280;49071;0.000;0.000;2023-04-19T11:56:55;101541.06;;;18.81;43.16
62976;BME280;49071;0.000;0.000;2023-04-19T12:00:03;101537.50;;;18.82;42.79
62976;BME280;49071;0.000;0.000;2023-04-19T12:03:06;101526.88;;;18.85;43.16
62976;BME280;49071;0.000;0.000;2023-04-19T12:06:09;101522.31;;;18.91;42.99
62976;BME280;49071;0.000;0.000;2023-04-19T12:09:09;101523.00;;;18.96;43.04
62976;BME280;49071;0.000;0.000;2023-04-19T12:12:10;101524.31;;;19.07;42.49
62976;BME280;49071;0.000;0.000;2023-04-19T12:15:10;101519.38;;;19.22;42.53
62976;BME280;49071;0.000;0.000;2023-04-19T12:18:10;101518.09;;;19.32;42.09
62976;BME280;49071;0.000;0.000;2023-04-19T12:21:22;101515.84;;;19.45;42.09
62976;BME280;49071;0.000;0.000;2023-04-19T12:24:23;101517.97;;;19.57;41.66
62976;BME280;49071;0.000;0.000;2023-04-19T12:27:23;101519.59;;;19.61;42.09
62976;BME280;49071;0.000;0.000;2023-04-19T12:30:24;101513.34;;;19.64;41.51
62976;BME280;49071;0.000;0.000;2023-04-19T12:33:25;101508.19;;;19.61;41.79
62976;BME280;49071;0.000;0.000;2023-04-19T12:36:25;101493.50;;;19.55;41.89
62976;BME280;49071;0.000;0.000;2023-04-19T12:39:27;101459.47;;;19.50;41.69
62976;BME280;49071;0.000;0.000;2023-04-19T12:42:27;101469.34;;;19.45;41.90
62976;BME280;49071;0.000;0.000;2023-04-19T12:45:27;101480.84;;;19.43;41.81
62976;BME280;49071;0.000;0.000;2023-04-19T12:48:28;101465.25;;;19.38;41.86
62976;BME280;49071;0.000;0.000;2023-04-19T12:51:28;101474.19;;;19.34;42.14
62976;BME280;49071;0.000;0.000;2023-04-19T12:54:29;101474.34;;;19.29;42.14
62976;BME280;49071;0.000;0.000;2023-04-19T12:57:29;101472.69;;;19.27;42.31
62976;BME280;49071;0.000;0.000;2023-04-19T13:00:30;101466.81;;;19.20;42.33
62976;BME280;49071;0.000;0.000;2023-04-19T13:03:30;101463.66;;;19.12;42.11
62976;BME280;49071;0.000;0.000;2023-04-19T13:06:31;101455.03;;;19.08;42.35
62976;BME280;49071;0.000;0.000;2023-04-19T13:09:32;101447.25;;;19.05;42.50
62976;BME280;49071;0.000;0.000;2023-04-19T13:12:32;101435.88;;;19.05;42.52
62976;BME280;49071;0.000;0.000;2023-04-19T13:15:32;101431.78;;;18.98;42.41
62976;BME280;49071;0.000;0.000;2023-04-19T13:18:32;101434.47;;;18.96;42.59
62976;BME280;49071;0.000;0.000;2023-04-19T13:21:32;101431.94;;;18.93;42.48
62976;BME280;49071;0.000;0.000;2023-04-19T13:24:32;101422.53;;;18.87;42.52
62976;BME280;49071;0.000;0.000;2023-04-19T13:27:33;101407.63;;;18.88;42.72
62976;BME280;49071;0.000;0.000;2023-04-19T13:30:33;101399.66;;;18.90;42.53
62976;BME280;49071;0.000;0.000;2023-04-19T13:33:33;101398.53;;;18.97;42.82
62976;BME280;49071;0.000;0.000;2023-04-19T13:36:33;101389.47;;;19.04;42.72
62976;BME280;49071;0.000;0.000;2023-04-19T13:39:33;101392.41;;;19.18;42.21
62976;BME280;49071;0.000;0.000;2023-04-19T13:42:34;101381.31;;;19.32;41.90
62976;BME280;49071;0.000;0.000;2023-04-19T13:45:34;101379.81;;;19.47;41.65
62976;BME280;49071;0.000;0.000;2023-04-19T13:48:34;101373.88;;;19.64;41.53
62976;BME280;49071;0.000;0.000;2023-04-19T13:51:34;101374.53;;;19.69;41.50
62976;BME280;49071;0.000;0.000;2023-04-19T13:54:34;101373.63;;;19.70;41.53
62976;BME280;49071;0.000;0.000;2023-04-19T13:57:35;101361.44;;;19.67;41.41
62976;BME280;49071;0.000;0.000;2023-04-19T14:00:35;101367.72;;;19.65;41.59
62976;BME280;49071;0.000;0.000;2023-04-19T14:03:35;101366.06;;;19.61;41.69
62976;BME280;49071;0.000;0.000;2023-04-19T14:06:35;101367.13;;;19.56;41.75
62976;BME280;49071;0.000;0.000;2023-04-19T14:09:35;101368.19;;;19.52;41.85
62976;BME280;49071;0.000;0.000;2023-04-19T14:12:36;101374.44;;;19.50;41.77
62976;BME280;49071;0.000;0.000;2023-04-19T14:15:36;101372.03;;;19.44;41.79
62976;BME280;49071;0.000;0.000;2023-04-19T14:18:36;101367.06;;;19.38;41.88
62976;BME280;49071;0.000;0.000;2023-04-19T14:21:36;101371.53;;;19.35;42.14
62976;BME280;49071;0.000;0.000;2023-04-19T14:24:37;101367.31;;;19.31;42.08
62976;BME280;49071;0.000;0.000;2023-04-19T14:27:37;101350.84;;;19.26;42.20
62976;BME280;49071;0.000;0.000;2023-04-19T14:30:38;101345.78;;;19.22;42.25
62976;BME280;49071;0.000;0.000;2023-04-19T14:33:44;101343.38;;;19.17;42.01
62976;BME280;49071;0.000;0.000;2023-04-19T14:36:44;101340.88;;;19.14;42.21
62976;BME280;49071;0.000;0.000;2023-04-19T14:39:45;101339.41;;;19.07;42.28
62976;BME280;49071;0.000;0.000;2023-04-19T14:42:45;101346.50;;;19.05;42.32
62976;BME280;49071;0.000;0.000;2023-04-19T14:45:46;101335.28;;;19.00;42.50
62976;BME280;49071;0.000;0.000;2023-04-19T14:48:47;101334.63;;;18.95;42.49
62976;BME280;49071;0.000;0.000;2023-04-19T14:51:47;101340.63;;;18.98;42.58
62976;BME280;49071;0.000;0.000;2023-04-19T14:54:47;101337.31;;;18.93;42.93
62976;BME280;49071;0.000;0.000;2023-04-19T14:57:47;101325.91;;;18.94;42.73
62976;BME280;49071;0.000;0.000;2023-04-19T15:00:47;101316.28;;;18.93;42.77
62976;BME280;49071;0.000;0.000;2023-04-19T15:03:48;101308.59;;;18.88;42.98
62976;BME280;49071;0.000;0.000;2023-04-19T15:06:48;101303.41;;;18.87;43.11
62976;BME280;49071;0.000;0.000;2023-04-19T15:09:48;101303.56;;;18.82;43.36
62976;BME280;49071;0.000;0.000;2023-04-19T15:12:49;101299.16;;;18.83;43.04
62976;BME280;49071;0.000;0.000;2023-04-19T15:15:49;101297.53;;;18.80;43.34
62976;BME280;49071;0.000;0.000;2023-04-19T15:18:50;101305.44;;;18.80;43.13
62976;BME280;49071;0.000;0.000;2023-04-19T15:21:50;101298.41;;;18.81;43.21
62976;BME280;49071;0.000;0.000;2023-04-19T15:24:50;101300.50;;;18.93;43.41
62976;BME280;49071;0.000;0.000;2023-04-19T15:27:51;101299.66;;;18.93;43.28
62976;BME280;49071;0.000;0.000;2023-04-19T15:30:57;101291.59;;;18.97;43.27
62976;BME280;49071;0.000;0.000;2023-04-19T15:34:01;101298.97;;;19.09;42.98
62976;BME280;49071;0.000;0.000;2023-04-19T15:37:01;101287.94;;;19.22;43.16
62976;BME280;49071;0.000;0.000;2023-04-19T15:40:05;101291.97;;;19.30;42.93
62976;BME280;49071;0.000;0.000;2023-04-19T15:43:06;101287.22;;;19.39;42.69
62976;BME280;49071;0.000;0.000;2023-04-19T15:46:10;101287.81;;;19.45;42.84
62976;BME280;49071;0.000;0.000;2023-04-19T15:49:10;101291.25;;;19.47;42.71
62976;BME280;49071;0.000;0.000;2023-04-19T15:52:10;101286.63;;;19.52;42.52
62976;BME280;49071;0.000;0.000;2023-04-19T15:55:11;101290.09;;;19.53;42.61
62976;BME280;49071;0.000;0.000;2023-04-19T15:58:11;101286.75;;;19.49;42.72
62976;BME280;49071;0.000;0.000;2023-04-19T16:01:11;101286.88;;;19.46;42.66
62976;BME280;49071;0.000;0.000;2023-04-19T16:04:12;101282.59;;;19.44;42.60
62976;BME280;49071;0.000;0.000;2023-04-19T16:07:12;101284.50;;;19.40;42.75
62976;BME280;49071;0.000;0.000;2023-04-19T16:10:12;101290.78;;;19.38;43.07
62976;BME280;49071;0.000;0.000;2023-04-19T16:13:13;101291.63;;;19.38;43.10
62976;BME280;49071;0.000;0.000;2023-04-19T16:16:13;101290.69;;;19.39;42.88
62976;BME280;49071;0.000;0.000;2023-04-19T16:19:13;101284.63;;;19.37;43.02
62976;BME280;49071;0.000;0.000;2023-04-19T16:22:14;101284.63;;;19.37;43.12
62976;BME280;49071;0.000;0.000;2023-04-19T16:25:14;101283.91;;;19.33;43.06
62976;BME280;49071;0.000;0.000;2023-04-19T16:28:15;101284.97;;;19.29;43.35
62976;BME280;49071;0.000;0.000;2023-04-19T16:31:15;101289.59;;;19.24;43.39
62976;BME280;49071;0.000;0.000;2023-04-19T16:34:15;101291.53;;;19.19;43.35
62976;BME280;49071;0.000;0.000;2023-04-19T16:37:15;101286.38;;;19.18;43.53
62976;BME280;49071;0.000;0.000;2023-04-19T16:40:17;101291.78;;;19.13;43.52
62976;BME280;49071;0.000;0.000;2023-04-19T16:43:20;101296.22;;;19.13;43.67
62976;BME280;49071;0.000;0.000;2023-04-19T16:46:20;101295.59;;;19.06;43.61
62976;BME280;49071;0.000;0.000;2023-04-19T16:49:21;101292.19;;;19.04;43.63
62976;BME280;49071;0.000;0.000;2023-04-19T16:52:21;101288.69;;;19.03;43.68
62976;BME280;49071;0.000;0.000;2023-04-19T16:55:21;101295.84;;;19.00;43.80
62976;BME280;49071;0.000;0.000;2023-04-19T16:58:21;101298.63;;;18.97;43.69
62976;BME280;49071;0.000;0.000;2023-04-19T17:01:22;101302.16;;;18.96;43.85
62976;BME280;49071;0.000;0.000;2023-04-19T17:04:22;101304.03;;;18.94;43.68
62976;BME280;49071;0.000;0.000;2023-04-19T17:07:22;101310.13;;;18.94;43.80
62976;BME280;49071;0.000;0.000;2023-04-19T17:10:23;101302.38;;;18.91;43.79
62976;BME280;49071;0.000;0.000;2023-04-19T17:13:23;101304.25;;;18.87;44.32
62976;BME280;49071;0.000;0.000;2023-04-19T17:16:24;101301.78;;;18.83;44.39
62976;BME280;49071;0.000;0.000;2023-04-19T17:19:24;101298.44;;;18.79;44.41
62976;BME280;49071;0.000;0.000;2023-04-19T17:22:25;101302.91;;;18.77;44.78
62976;BME280;49071;0.000;0.000;2023-04-19T17:25:25;101301.88;;;18.81;44.35
62976;BME280;49071;0.000;0.000;2023-04-19T17:28:25;101298.50;;;18.78;44.63
62976;BME280;49071;0.000;0.000;2023-04-19T17:31:27;101304.56;;;18.80;44.90
62976;BME280;49071;0.000;0.000;2023-04-19T17:34:27;101309.63;;;18.84;44.45
62976;BME280;49071;0.000;0.000;2023-04-19T17:37:27;101314.69;;;18.89;44.64
62976;BME280;49071;0.000;0.000;2023-04-19T17:40:27;101317.94;;;18.96;44.53
62976;BME280;49071;0.000;0.000;2023-04-19T17:43:28;101317.69;;;19.02;44.26
62976;BME280;49071;0.000;0.000;2023-04-19T17:46:28;101320.72;;;19.13;44.20
62976;BME280;49071;0.000;0.000;2023-04-19T17:49:28;101316.88;;;19.22;44.02
62976;BME280;49071;0.000;0.000;2023-04-19T17:52:28;101319.97;;;19.31;43.90
62976;BME280;49071;0.000;0.000;2023-04-19T17:55:28;101322.06;;;19.44;43.78
62976;BME280;49071;0.000;0.000;2023-04-19T17:58:28;101324.44;;;19.50;43.81
62976;BME280;49071;0.000;0.000;2023-04-19T18:01:29;101321.09;;;19.46;43.58
62976;BME280;49071;0.000;0.000;2023-04-19T18:04:30;101330.84;;;19.44;43.60
62976;BME280;49071;0.000;0.000;2023-04-19T18:07:31;101338.44;;;19.50;43.38
62976;BME280;49071;0.000;0.000;2023-04-19T18:10:31;101344.72;;;19.48;43.39
62976;BME280;49071;0.000;0.000;2023-04-19T18:13:31;101340.34;;;19.47;43.53
62976;BME280;49071;0.000;0.000;2023-04-19T18:16:32;101351.81;;;19.46;43.67
62976;BME280;49071;0.000;0.000;2023-04-19T18:19:32;101354.31;;;19.49;43.37
62976;BME280;49071;0.000;0.000;2023-04-19T18:22:32;101358.63;;;19.50;43.75
62976;BME280;49071;0.000;0.000;2023-04-19T18:25:32;101363.13;;;19.48;43.58
62976;BME280;49071;0.000;0.000;2023-04-19T18:28:35;101365.94;;;19.43;43.69
62976;BME280;49071;0.000;0.000;2023-04-19T18:31:36;101363.56;;;19.37;43.85
62976;BME280;49071;0.000;0.000;2023-04-19T18:34:36;101363.75;;;19.32;43.74
62976;BME280;49071;0.000;0.000;2023-04-19T18:37:36;101361.25;;;19.29;44.01
62976;BME280;49071;0.000;0.000;2023-04-19T18:40:37;101357.84;;;19.27;43.73
62976;BME280;49071;0.000;0.000;2023-04-19T18:43:37;101364.00;;;19.26;43.88
62976;BME280;49071;0.000;0.000;2023-04-19T18:46:37;101364.84;;;19.27;43.93
62976;BME280;49071;0.000;0.000;2023-04-19T18:49:37;101367.75;;;19.21;44.00
62976;BME280;49071;0.000;0.000;2023-04-19T18:52:37;101373.88;;;19.21;43.90
62976;BME280;49071;0.000;0.000;2023-04-19T18:55:37;101370.56;;;19.16;43.97
62976;BME280;49071;0.000;0.000;2023-04-19T18:58:38;101375.94;;;19.13;43.88
62976;BME280;49071;0.000;0.000;2023-04-19T19:01:38;101376.81;;;19.14;43.80
62976;BME280;49071;0.000;0.000;2023-04-19T19:04:39;101382.09;;;19.14;44.08
62976;BME280;49071;0.000;0.000;2023-04-19T19:07:39;101379.56;;;19.10;44.26
62976;BME280;49071;0.000;0.000;2023-04-19T19:10:40;101379.63;;;19.09;44.08
62976;BME280;49071;0.000;0.000;2023-04-19T19:13:40;101377.13;;;19.06;44.29
62976;BME280;49071;0.000;0.000;2023-04-19T19:16:41;101382.59;;;19.00;44.32
62976;BME280;49071;0.000;0.000;2023-04-19T19:19:41;101386.28;;;18.96;44.47
62976;BME280;49071;0.000;0.000;2023-04-19T19:22:41;101388.13;;;18.94;44.30
62976;BME280;49071;0.000;0.000;2023-04-19T19:25:41;101387.41;;;18.90;44.79
62976;BME280;49071;0.000;0.000;2023-04-19T19:28:42;101385.75;;;18.87;44.67
62976;BME280;49071;0.000;0.000;2023-04-19T19:31:42;101397.22;;;18.85;44.76
62976;BME280;49071;0.000;0.000;2023-04-19T19:34:42;101390.16;;;18.87;44.93
62976;BME280;49071;0.000;0.000;2023-04-19T19:37:42;101396.38;;;18.84;44.74
62976;BME280;49071;0.000;0.000;2023-04-19T19:40:42;101400.06;;;18.80;45.21
62976;BME280;49071;0.000;0.000;2023-04-19T19:43:43;101401.06;;;18.76;45.19
62976;BME280;49071;0.000;0.000;2023-04-19T19:46:44;101398.44;;;18.76;45.40
62976;BME280;49071;0.000;0.000;2023-04-19T19:49:44;101403.84;;;18.73;45.04
